sensor_id;sensor_type;location;lat;lon;timestamp;temperature;humidity
18126;DHT22;53956;52.442;13.284;2023-04-03T00:01:15;5.50;86.30
18126;DHT22;53956;52.442;13.284;2023-04-03T00:03:42;5.50;86.30
18126;DHT22;53956;52.442;13.284;2023-04-03T00:06:10;5.50;86.20
18126;DHT22;53956;52.442;13.284;2023-04-03T00:08:38;5.60;86.30
18126;DHT22;53956;52.442;13.284;2023-04-03T00:11:05;5.40;85.50
18126;DHT22;53956;52.442;13.284;2023-04-03T00:13:33;5.50;85.70
18126;DHT22;53956;52.442;13.284;2023-04-03T00:15:59;5.40;85.90
18126;DHT22;53956;52.442;13.284;2023-04-03T00:18:27;5.50;86.20
18126;DHT22;53956;52.442;13.284;2023-04-03T00:20:54;5.40;85.80
18126;DHT22;53956;52.442;13.284;2023-04-03T00:23:22;5.40;85.80
18126;DHT22;53956;52.442;13.284;2023-04-03T00:25:49;5.60;85.70
18126;DHT22;53956;52.442;13.284;2023-04-03T00:28:15;5.60;85.90
18126;DHT22;53956;52.442;13.284;2023-04-03T00:30:42;5.50;86.00
18126;DHT22;53956;52.442;13.284;2023-04-03T00:33:10;5.50;85.80
18126;DHT22;53956;52.442;13.284;2023-04-03T00:35:37;5.40;85.20
18126;DHT22;53956;52.442;13.284;2023-04-03T00:38:04;5.30;84.70
18126;DHT22;53956;52.442;13.284;2023-04-03T00:40:36;5.70;84.40
18126;DHT22;53956;52.442;13.284;2023-04-03T00:43:10;5.30;84.70
18126;DHT22;53956;52.442;13.284;2023-04-03T00:45:39;5.50;84.70
18126;DHT22;53956;52.442;13.284;2023-04-03T00:48:09;5.50;84.20
18126;DHT22;53956;52.442;13.284;2023-04-03T00:50:39;5.40;84.40
18126;DHT22;53956;52.442;13.284;2023-04-03T00:53:10;5.50;84.60
18126;DHT22;53956;52.442;13.284;2023-04-03T00:55:39;5.50;84.30
18126;DHT22;53956;52.442;13.284;2023-04-03T00:58:08;5.50;84.50
18126;DHT22;53956;52.442;13.284;2023-04-03T01:00:37;5.60;84.40
18126;DHT22;53956;52.442;13.284;2023-04-03T01:03:05;5.70;85.10
18126;DHT22;53956;52.442;13.284;2023-04-03T01:05:32;5.50;84.30
18126;DHT22;53956;52.442;13.284;2023-04-03T01:07:59;5.60;84.60
18126;DHT22;53956;52.442;13.284;2023-04-03T01:10:27;5.60;84.30
18126;DHT22;53956;52.442;13.284;2023-04-03T01:12:55;5.60;84.30
18126;DHT22;53956;52.442;13.284;2023-04-03T01:15:25;5.60;84.50
18126;DHT22;53956;52.442;13.284;2023-04-03T01:17:56;5.70;84.70
18126;DHT22;53956;52.442;13.284;2023-04-03T01:20:47;5.70;84.10
18126;DHT22;53956;52.442;13.284;2023-04-03T01:23:28;5.60;84.50
18126;DHT22;53956;52.442;13.284;2023-04-03T01:25:57;5.70;85.10
18126;DHT22;53956;52.442;13.284;2023-04-03T01:28:28;5.50;84.70
18126;DHT22;53956;52.442;13.284;2023-04-03T01:31:01;5.60;84.40
18126;DHT22;53956;52.442;13.284;2023-04-03T01:33:32;5.70;84.50
18126;DHT22;53956;52.442;13.284;2023-04-03T01:35:59;5.70;84.90
18126;DHT22;53956;52.442;13.284;2023-04-03T01:38:26;5.50;84.80
18126;DHT22;53956;52.442;13.284;2023-04-03T01:40:53;5.70;84.60
18126;DHT22;53956;52.442;13.284;2023-04-03T01:43:21;5.80;85.00
18126;DHT22;53956;52.442;13.284;2023-04-03T01:45:47;5.80;84.90
18126;DHT22;53956;52.442;13.284;2023-04-03T01:48:16;5.50;84.20
18126;DHT22;53956;52.442;13.284;2023-04-03T01:50:44;5.70;85.20
18126;DHT22;53956;52.442;13.284;2023-04-03T01:53:12;5.50;84.90
18126;DHT22;53956;52.442;13.284;2023-04-03T01:55:39;5.50;84.80
18126;DHT22;53956;52.442;13.284;2023-04-03T01:58:06;5.70;84.70
18126;DHT22;53956;52.442;13.284;2023-04-03T02:00:33;5.90;85.30
18126;DHT22;53956;52.442;13.284;2023-04-03T02:02:59;5.90;84.60
18126;DHT22;53956;52.442;13.284;2023-04-03T02:05:26;5.80;85.30
18126;DHT22;53956;52.442;13.284;2023-04-03T02:07:54;5.50;85.00
18126;DHT22;53956;52.442;13.284;2023-04-03T02:10:21;5.70;85.20
18126;DHT22;53956;52.442;13.284;2023-04-03T02:12:48;5.50;85.30
18126;DHT22;53956;52.442;13.284;2023-04-03T02:15:16;5.70;85.50
18126;DHT22;53956;52.442;13.284;2023-04-03T02:17:42;5.60;85.50
18126;DHT22;53956;52.442;13.284;2023-04-03T02:20:10;5.80;85.70
18126;DHT22;53956;52.442;13.284;2023-04-03T02:22:38;5.60;85.40
18126;DHT22;53956;52.442;13.284;2023-04-03T02:25:06;5.70;85.70
18126;DHT22;53956;52.442;13.284;2023-04-03T02:27:33;5.50;86.10
18126;DHT22;53956;52.442;13.284;2023-04-03T02:30:00;5.40;86.70
18126;DHT22;53956;52.442;13.284;2023-04-03T02:32:27;5.70;86.00
18126;DHT22;53956;52.442;13.284;2023-04-03T02:34:55;5.80;86.30
18126;DHT22;53956;52.442;13.284;2023-04-03T02:37:22;5.60;85.80
18126;DHT22;53956;52.442;13.284;2023-04-03T02:39:51;5.50;86.20
18126;DHT22;53956;52.442;13.284;2023-04-03T02:42:19;5.60;86.30
18126;DHT22;53956;52.442;13.284;2023-04-03T02:44:45;5.50;86.10
18126;DHT22;53956;52.442;13.284;2023-04-03T02:47:12;5.60;86.70
18126;DHT22;53956;52.442;13.284;2023-04-03T02:49:39;5.60;86.50
18126;DHT22;53956;52.442;13.284;2023-04-03T02:52:05;5.60;86.40
18126;DHT22;53956;52.442;13.284;2023-04-03T02:54:32;5.60;87.00
18126;DHT22;53956;52.442;13.284;2023-04-03T02:57:03;5.30;86.50
18126;DHT22;53956;52.442;13.284;2023-04-03T02:59:31;5.40;87.00
18126;DHT22;53956;52.442;13.284;2023-04-03T03:01:57;5.80;86.60
18126;DHT22;53956;52.442;13.284;2023-04-03T03:04:24;5.60;86.70
18126;DHT22;53956;52.442;13.284;2023-04-03T03:06:51;5.70;87.00
18126;DHT22;53956;52.442;13.284;2023-04-03T03:09:18;5.40;86.50
18126;DHT22;53956;52.442;13.284;2023-04-03T03:11:45;5.50;86.40
18126;DHT22;53956;52.442;13.284;2023-04-03T03:14:11;5.50;87.30
18126;DHT22;53956;52.442;13.284;2023-04-03T03:16:39;5.50;86.70
18126;DHT22;53956;52.442;13.284;2023-04-03T03:19:06;5.40;87.50
18126;DHT22;53956;52.442;13.284;2023-04-03T03:21:33;5.40;87.40
18126;DHT22;53956;52.442;13.284;2023-04-03T03:24:01;5.60;87.40
18126;DHT22;53956;52.442;13.284;2023-04-03T03:26:28;5.40;87.40
18126;DHT22;53956;52.442;13.284;2023-04-03T03:28:54;5.20;87.30
18126;DHT22;53956;52.442;13.284;2023-04-03T03:31:21;5.20;88.30
18126;DHT22;53956;52.442;13.284;2023-04-03T03:33:49;5.20;87.90
18126;DHT22;53956;52.442;13.284;2023-04-03T03:36:16;5.70;94.30
18126;DHT22;53956;52.442;13.284;2023-04-03T03:38:43;5.40;88.70
18126;DHT22;53956;52.442;13.284;2023-04-03T03:41:10;5.50;87.80
18126;DHT22;53956;52.442;13.284;2023-04-03T03:43:37;5.10;88.20
18126;DHT22;53956;52.442;13.284;2023-04-03T03:46:06;5.30;88.60
18126;DHT22;53956;52.442;13.284;2023-04-03T03:48:33;5.20;87.90
18126;DHT22;53956;52.442;13.284;2023-04-03T03:51:02;5.10;88.40
18126;DHT22;53956;52.442;13.284;2023-04-03T03:53:33;5.30;88.30
18126;DHT22;53956;52.442;13.284;2023-04-03T03:56:04;5.10;89.00
18126;DHT22;53956;52.442;13.284;2023-04-03T03:58:33;5.20;88.50
18126;DHT22;53956;52.442;13.284;2023-04-03T04:01:01;5.00;88.30
18126;DHT22;53956;52.442;13.284;2023-04-03T04:03:28;5.00;88.30
18126;DHT22;53956;52.442;13.284;2023-04-03T04:05:55;5.10;89.10
18126;DHT22;53956;52.442;13.284;2023-04-03T04:08:24;5.00;88.40
18126;DHT22;53956;52.442;13.284;2023-04-03T04:10:51;4.90;88.80
18126;DHT22;53956;52.442;13.284;2023-04-03T04:13:18;5.00;89.10
18126;DHT22;53956;52.442;13.284;2023-04-03T04:15:45;5.20;89.20
18126;DHT22;53956;52.442;13.284;2023-04-03T04:18:13;5.00;89.10
18126;DHT22;53956;52.442;13.284;2023-04-03T04:20:45;5.00;88.80
18126;DHT22;53956;52.442;13.284;2023-04-03T04:23:12;4.90;89.00
18126;DHT22;53956;52.442;13.284;2023-04-03T04:25:40;4.90;89.30
18126;DHT22;53956;52.442;13.284;2023-04-03T04:28:07;5.20;88.90
18126;DHT22;53956;52.442;13.284;2023-04-03T04:30:34;4.90;89.00
18126;DHT22;53956;52.442;13.284;2023-04-03T04:33:02;4.80;89.50
18126;DHT22;53956;52.442;13.284;2023-04-03T04:35:32;4.90;89.30
18126;DHT22;53956;52.442;13.284;2023-04-03T04:37:59;4.90;89.30
18126;DHT22;53956;52.442;13.284;2023-04-03T04:40:26;4.80;89.70
18126;DHT22;53956;52.442;13.284;2023-04-03T04:42:54;4.90;89.00
18126;DHT22;53956;52.442;13.284;2023-04-03T04:45:21;4.90;89.00
18126;DHT22;53956;52.442;13.284;2023-04-03T04:47:48;5.00;89.30
18126;DHT22;53956;52.442;13.284;2023-04-03T04:50:17;4.90;89.20
18126;DHT22;53956;52.442;13.284;2023-04-03T04:52:44;4.90;89.70
18126;DHT22;53956;52.442;13.284;2023-04-03T04:55:11;4.80;89.30
18126;DHT22;53956;52.442;13.284;2023-04-03T04:57:37;5.00;89.40
18126;DHT22;53956;52.442;13.284;2023-04-03T05:00:07;5.10;89.10
18126;DHT22;53956;52.442;13.284;2023-04-03T05:02:35;5.00;89.20
18126;DHT22;53956;52.442;13.284;2023-04-03T05:05:02;5.00;89.40
18126;DHT22;53956;52.442;13.284;2023-04-03T05:07:29;5.10;89.80
18126;DHT22;53956;52.442;13.284;2023-04-03T05:09:57;5.10;89.40
18126;DHT22;53956;52.442;13.284;2023-04-03T05:12:24;5.10;89.80
18126;DHT22;53956;52.442;13.284;2023-04-03T05:14:55;4.90;89.20
18126;DHT22;53956;52.442;13.284;2023-04-03T05:17:25;5.00;89.60
18126;DHT22;53956;52.442;13.284;2023-04-03T05:19:55;5.30;89.80
18126;DHT22;53956;52.442;13.284;2023-04-03T05:22:23;5.30;89.60
18126;DHT22;53956;52.442;13.284;2023-04-03T05:24:52;5.30;90.10
18126;DHT22;53956;52.442;13.284;2023-04-03T05:27:20;5.30;90.00
18126;DHT22;53956;52.442;13.284;2023-04-03T05:29:52;5.10;89.60
18126;DHT22;53956;52.442;13.284;2023-04-03T05:32:21;5.10;90.00
18126;DHT22;53956;52.442;13.284;2023-04-03T05:34:54;5.20;90.10
18126;DHT22;53956;52.442;13.284;2023-04-03T05:37:21;5.30;89.60
18126;DHT22;53956;52.442;13.284;2023-04-03T05:39:49;5.30;89.70
18126;DHT22;53956;52.442;13.284;2023-04-03T05:42:16;5.60;90.20
18126;DHT22;53956;52.442;13.284;2023-04-03T05:44:43;5.40;89.90
18126;DHT22;53956;52.442;13.284;2023-04-03T05:47:13;6.30;88.30
18126;DHT22;53956;52.442;13.284;2023-04-03T05:49:40;8.10;84.20
18126;DHT22;53956;52.442;13.284;2023-04-03T05:52:18;9.40;81.00
18126;DHT22;53956;52.442;13.284;2023-04-03T05:54:46;10.40;76.90
18126;DHT22;53956;52.442;13.284;2023-04-03T05:57:18;11.00;73.40
18126;DHT22;53956;52.442;13.284;2023-04-03T05:59:46;11.20;71.80
18126;DHT22;53956;52.442;13.284;2023-04-03T06:02:15;12.00;70.30
18126;DHT22;53956;52.442;13.284;2023-04-03T06:04:42;12.50;69.00
18126;DHT22;53956;52.442;13.284;2023-04-03T06:07:13;13.20;66.20
18126;DHT22;53956;52.442;13.284;2023-04-03T06:09:40;13.30;65.40
18126;DHT22;53956;52.442;13.284;2023-04-03T06:12:07;13.70;64.50
18126;DHT22;53956;52.442;13.284;2023-04-03T06:14:34;13.90;62.70
18126;DHT22;53956;52.442;13.284;2023-04-03T06:17:01;13.80;62.20
18126;DHT22;53956;52.442;13.284;2023-04-03T06:19:28;14.20;62.50
18126;DHT22;53956;52.442;13.284;2023-04-03T06:21:56;14.50;60.60
18126;DHT22;53956;52.442;13.284;2023-04-03T06:24:25;14.60;61.00
18126;DHT22;53956;52.442;13.284;2023-04-03T06:26:52;15.00;58.70
18126;DHT22;53956;52.442;13.284;2023-04-03T06:29:19;15.10;59.10
18126;DHT22;53956;52.442;13.284;2023-04-03T06:31:46;14.90;58.40
18126;DHT22;53956;52.442;13.284;2023-04-03T06:34:13;15.10;59.00
18126;DHT22;53956;52.442;13.284;2023-04-03T06:36:41;15.40;57.60
18126;DHT22;53956;52.442;13.284;2023-04-03T06:39:08;15.60;55.60
18126;DHT22;53956;52.442;13.284;2023-04-03T06:41:37;15.70;55.10
18126;DHT22;53956;52.442;13.284;2023-04-03T06:44:04;15.80;55.10
18126;DHT22;53956;52.442;13.284;2023-04-03T06:46:30;15.80;54.90
18126;DHT22;53956;52.442;13.284;2023-04-03T06:48:57;15.30;56.10
18126;DHT22;53956;52.442;13.284;2023-04-03T06:51:26;15.40;55.00
18126;DHT22;53956;52.442;13.284;2023-04-03T06:53:54;16.00;53.10
18126;DHT22;53956;52.442;13.284;2023-04-03T06:56:22;14.60;56.10
18126;DHT22;53956;52.442;13.284;2023-04-03T06:58:50;14.60;56.50
18126;DHT22;53956;52.442;13.284;2023-04-03T07:01:17;15.20;55.10
18126;DHT22;53956;52.442;13.284;2023-04-03T07:03:45;15.70;53.70
18126;DHT22;53956;52.442;13.284;2023-04-03T07:06:14;15.40;52.20
18126;DHT22;53956;52.442;13.284;2023-04-03T07:08:41;15.10;54.80
18126;DHT22;53956;52.442;13.284;2023-04-03T07:11:08;15.80;53.40
18126;DHT22;53956;52.442;13.284;2023-04-03T07:13:35;16.00;52.70
18126;DHT22;53956;52.442;13.284;2023-04-03T07:16:04;15.30;53.30
18126;DHT22;53956;52.442;13.284;2023-04-03T07:18:32;14.50;54.70
18126;DHT22;53956;52.442;13.284;2023-04-03T07:20:58;14.30;54.90
18126;DHT22;53956;52.442;13.284;2023-04-03T07:23:25;14.10;54.30
18126;DHT22;53956;52.442;13.284;2023-04-03T07:25:52;14.20;54.20
18126;DHT22;53956;52.442;13.284;2023-04-03T07:28:21;13.30;56.10
18126;DHT22;53956;52.442;13.284;2023-04-03T07:30:49;13.60;55.70
18126;DHT22;53956;52.442;13.284;2023-04-03T07:33:20;14.80;55.80
18126;DHT22;53956;52.442;13.284;2023-04-03T07:35:47;15.70;52.10
18126;DHT22;53956;52.442;13.284;2023-04-03T07:38:13;16.10;51.50
18126;DHT22;53956;52.442;13.284;2023-04-03T07:40:45;15.40;51.00
18126;DHT22;53956;52.442;13.284;2023-04-03T07:43:12;13.60;52.70
18126;DHT22;53956;52.442;13.284;2023-04-03T07:45:39;12.40;56.30
18126;DHT22;53956;52.442;13.284;2023-04-03T07:48:05;11.00;57.40
18126;DHT22;53956;52.442;13.284;2023-04-03T07:50:34;10.80;57.80
18126;DHT22;53956;52.442;13.284;2023-04-03T07:53:01;9.70;57.30
18126;DHT22;53956;52.442;13.284;2023-04-03T07:55:28;9.50;59.20
18126;DHT22;53956;52.442;13.284;2023-04-03T07:57:55;10.30;58.90
18126;DHT22;53956;52.442;13.284;2023-04-03T08:00:22;10.40;58.30
18126;DHT22;53956;52.442;13.284;2023-04-03T08:02:48;10.70;59.10
18126;DHT22;53956;52.442;13.284;2023-04-03T08:05:17;10.00;59.30
18126;DHT22;53956;52.442;13.284;2023-04-03T08:07:45;10.00;59.40
18126;DHT22;53956;52.442;13.284;2023-04-03T08:10:13;10.40;58.80
18126;DHT22;53956;52.442;13.284;2023-04-03T08:12:39;9.80;60.10
18126;DHT22;53956;52.442;13.284;2023-04-03T08:15:07;9.30;60.80
18126;DHT22;53956;52.442;13.284;2023-04-03T08:17:35;9.20;61.50
18126;DHT22;53956;52.442;13.284;2023-04-03T08:20:03;9.90;59.50
18126;DHT22;53956;52.442;13.284;2023-04-03T08:22:32;10.50;59.30
18126;DHT22;53956;52.442;13.284;2023-04-03T08:25:00;10.80;58.80
18126;DHT22;53956;52.442;13.284;2023-04-03T08:27:27;10.60;59.40
18126;DHT22;53956;52.442;13.284;2023-04-03T08:29:54;10.00;59.70
18126;DHT22;53956;52.442;13.284;2023-04-03T08:32:20;9.30;61.60
18126;DHT22;53956;52.442;13.284;2023-04-03T08:34:47;9.00;62.90
18126;DHT22;53956;52.442;13.284;2023-04-03T08:37:14;8.50;63.30
18126;DHT22;53956;52.442;13.284;2023-04-03T08:39:41;8.00;63.70
18126;DHT22;53956;52.442;13.284;2023-04-03T08:42:16;8.30;64.30
18126;DHT22;53956;52.442;13.284;2023-04-03T08:44:47;8.00;65.30
18126;DHT22;53956;52.442;13.284;2023-04-03T08:47:22;7.80;65.80
18126;DHT22;53956;52.442;13.284;2023-04-03T08:49:52;7.60;65.70
18126;DHT22;53956;52.442;13.284;2023-04-03T08:52:24;7.60;66.40
18126;DHT22;53956;52.442;13.284;2023-04-03T08:54:54;7.80;66.30
18126;DHT22;53956;52.442;13.284;2023-04-03T08:57:29;7.80;65.50
18126;DHT22;53956;52.442;13.284;2023-04-03T08:59:58;7.80;66.30
18126;DHT22;53956;52.442;13.284;2023-04-03T09:02:29;7.80;65.10
18126;DHT22;53956;52.442;13.284;2023-04-03T09:04:57;7.90;65.60
18126;DHT22;53956;52.442;13.284;2023-04-03T09:07:32;8.10;64.80
18126;DHT22;53956;52.442;13.284;2023-04-03T09:10:02;7.80;64.30
18126;DHT22;53956;52.442;13.284;2023-04-03T09:12:35;7.80;64.50
18126;DHT22;53956;52.442;13.284;2023-04-03T09:15:10;7.60;65.20
18126;DHT22;53956;52.442;13.284;2023-04-03T09:17:44;7.70;65.70
18126;DHT22;53956;52.442;13.284;2023-04-03T09:20:19;8.00;65.80
18126;DHT22;53956;52.442;13.284;2023-04-03T09:22:50;8.00;66.00
18126;DHT22;53956;52.442;13.284;2023-04-03T09:25:20;8.20;64.70
18126;DHT22;53956;52.442;13.284;2023-04-03T09:27:50;8.20;64.60
18126;DHT22;53956;52.442;13.284;2023-04-03T09:30:18;8.40;63.40
18126;DHT22;53956;52.442;13.284;2023-04-03T09:32:46;8.30;61.50
18126;DHT22;53956;52.442;13.284;2023-04-03T09:35:20;7.80;62.40
18126;DHT22;53956;52.442;13.284;2023-04-03T09:37:48;8.00;62.30
18126;DHT22;53956;52.442;13.284;2023-04-03T09:40:31;8.20;61.80
18126;DHT22;53956;52.442;13.284;2023-04-03T09:43:02;8.10;61.80
18126;DHT22;53956;52.442;13.284;2023-04-03T09:45:46;8.10;62.40
18126;DHT22;53956;52.442;13.284;2023-04-03T09:48:17;7.70;61.80
18126;DHT22;53956;52.442;13.284;2023-04-03T09:50:58;7.90;62.50
18126;DHT22;53956;52.442;13.284;2023-04-03T09:53:32;8.40;61.40
18126;DHT22;53956;52.442;13.284;2023-04-03T09:56:00;8.50;60.10
18126;DHT22;53956;52.442;13.284;2023-04-03T09:58:32;8.60;60.30
18126;DHT22;53956;52.442;13.284;2023-04-03T10:01:01;8.60;60.70
18126;DHT22;53956;52.442;13.284;2023-04-03T10:03:30;8.50;60.50
18126;DHT22;53956;52.442;13.284;2023-04-03T10:05:58;8.20;60.30
18126;DHT22;53956;52.442;13.284;2023-04-03T10:08:28;7.90;61.20
18126;DHT22;53956;52.442;13.284;2023-04-03T10:11:15;7.80;61.20
18126;DHT22;53956;52.442;13.284;2023-04-03T10:13:54;7.90;61.50
18126;DHT22;53956;52.442;13.284;2023-04-03T10:16:25;7.90;62.40
18126;DHT22;53956;52.442;13.284;2023-04-03T10:19:03;8.20;62.20
18126;DHT22;53956;52.442;13.284;2023-04-03T10:21:36;8.20;61.60
18126;DHT22;53956;52.442;13.284;2023-04-03T10:24:11;8.40;61.70
18126;DHT22;53956;52.442;13.284;2023-04-03T10:26:46;8.50;62.30
18126;DHT22;53956;52.442;13.284;2023-04-03T10:29:25;8.80;62.20
18126;DHT22;53956;52.442;13.284;2023-04-03T10:32:01;9.00;62.60
18126;DHT22;53956;52.442;13.284;2023-04-03T10:34:32;9.00;61.50
18126;DHT22;53956;52.442;13.284;2023-04-03T10:37:06;8.90;61.40
18126;DHT22;53956;52.442;13.284;2023-04-03T10:39:43;9.00;62.00
18126;DHT22;53956;52.442;13.284;2023-04-03T10:42:16;8.90;61.00
18126;DHT22;53956;52.442;13.284;2023-04-03T10:44:57;8.70;61.00
18126;DHT22;53956;52.442;13.284;2023-04-03T10:47:34;8.80;60.00
18126;DHT22;53956;52.442;13.284;2023-04-03T10:50:12;9.40;61.70
18126;DHT22;53956;52.442;13.284;2023-04-03T10:52:47;9.30;58.10
18126;DHT22;53956;52.442;13.284;2023-04-03T10:55:23;9.20;58.20
18126;DHT22;53956;52.442;13.284;2023-04-03T10:57:51;8.90;58.50
18126;DHT22;53956;52.442;13.284;2023-04-03T11:00:23;9.00;59.70
18126;DHT22;53956;52.442;13.284;2023-04-03T11:02:53;9.00;60.30
18126;DHT22;53956;52.442;13.284;2023-04-03T11:05:26;8.70;59.40
18126;DHT22;53956;52.442;13.284;2023-04-03T11:07:56;8.60;59.50
18126;DHT22;53956;52.442;13.284;2023-04-03T11:10:37;8.90;60.10
18126;DHT22;53956;52.442;13.284;2023-04-03T11:13:11;9.00;58.30
18126;DHT22;53956;52.442;13.284;2023-04-03T11:15:41;8.80;59.30
18126;DHT22;53956;52.442;13.284;2023-04-03T11:18:12;8.70;58.80
18126;DHT22;53956;52.442;13.284;2023-04-03T11:20:53;9.00;59.30
18126;DHT22;53956;52.442;13.284;2023-04-03T11:23:25;8.90;59.10
18126;DHT22;53956;52.442;13.284;2023-04-03T11:25:55;8.90;59.90
18126;DHT22;53956;52.442;13.284;2023-04-03T11:28:26;8.90;59.30
18126;DHT22;53956;52.442;13.284;2023-04-03T11:31:04;8.70;60.00
18126;DHT22;53956;52.442;13.284;2023-04-03T11:33:42;8.70;59.50
18126;DHT22;53956;52.442;13.284;2023-04-03T11:36:18;8.70;61.40
18126;DHT22;53956;52.442;13.284;2023-04-03T11:38:49;8.50;60.50
18126;DHT22;53956;52.442;13.284;2023-04-03T11:41:16;8.40;60.10
18126;DHT22;53956;52.442;13.284;2023-04-03T11:43:57;8.60;60.50
18126;DHT22;53956;52.442;13.284;2023-04-03T11:46:52;8.60;60.70
18126;DHT22;53956;52.442;13.284;2023-04-03T11:49:57;8.70;61.30
18126;DHT22;53956;52.442;13.284;2023-04-03T11:55:45;8.70;61.50
18126;DHT22;53956;52.442;13.284;2023-04-03T11:58:14;8.40;62.20
18126;DHT22;53956;52.442;13.284;2023-04-03T12:00:49;8.30;62.00
18126;DHT22;53956;52.442;13.284;2023-04-03T12:05:46;8.60;62.10
18126;DHT22;53956;52.442;13.284;2023-04-03T12:11:34;8.20;62.30
18126;DHT22;53956;52.442;13.284;2023-04-03T12:14:20;8.60;62.60
18126;DHT22;53956;52.442;13.284;2023-04-03T12:17:20;8.70;62.40
18126;DHT22;53956;52.442;13.284;2023-04-03T12:23:30;8.70;63.10
18126;DHT22;53956;52.442;13.284;2023-04-03T12:26:21;8.60;63.40
18126;DHT22;53956;52.442;13.284;2023-04-03T12:28:51;8.60;63.70
18126;DHT22;53956;52.442;13.284;2023-04-03T12:31:36;8.70;63.60
18126;DHT22;53956;52.442;13.284;2023-04-03T12:34:24;8.50;63.20
18126;DHT22;53956;52.442;13.284;2023-04-03T12:37:14;8.50;63.50
18126;DHT22;53956;52.442;13.284;2023-04-03T12:40:15;8.40;64.60
18126;DHT22;53956;52.442;13.284;2023-04-03T12:45:56;8.30;64.00
18126;DHT22;53956;52.442;13.284;2023-04-03T12:48:56;7.80;64.60
18126;DHT22;53956;52.442;13.284;2023-04-03T12:51:52;8.20;64.00
18126;DHT22;53956;52.442;13.284;2023-04-03T12:54:29;8.00;65.30
18126;DHT22;53956;52.442;13.284;2023-04-03T12:57:20;8.00;64.60
18126;DHT22;53956;52.442;13.284;2023-04-03T12:59:59;8.10;65.00
18126;DHT22;53956;52.442;13.284;2023-04-03T13:02:37;7.90;64.30
18126;DHT22;53956;52.442;13.284;2023-04-03T13:05:37;8.00;62.40
18126;DHT22;53956;52.442;13.284;2023-04-03T13:08:21;8.20;62.90
18126;DHT22;53956;52.442;13.284;2023-04-03T13:14:48;8.40;61.50
18126;DHT22;53956;52.442;13.284;2023-04-03T13:20:42;8.40;61.90
18126;DHT22;53956;52.442;13.284;2023-04-03T13:25:43;8.40;62.80
18126;DHT22;53956;52.442;13.284;2023-04-03T13:26:47;8.50;62.70
18126;DHT22;53956;52.442;13.284;2023-04-03T13:29:50;8.40;62.40
18126;DHT22;53956;52.442;13.284;2023-04-03T13:32:37;8.40;62.80
18126;DHT22;53956;52.442;13.284;2023-04-03T13:35:29;8.40;62.90
18126;DHT22;53956;52.442;13.284;2023-04-03T13:37:57;8.40;64.20
18126;DHT22;53956;52.442;13.284;2023-04-03T13:40:25;8.40;63.90
18126;DHT22;53956;52.442;13.284;2023-04-03T13:43:00;8.20;64.50
18126;DHT22;53956;52.442;13.284;2023-04-03T13:45:30;8.30;64.80
18126;DHT22;53956;52.442;13.284;2023-04-03T13:48:10;8.30;65.00
18126;DHT22;53956;52.442;13.284;2023-04-03T13:50:53;8.50;64.70
18126;DHT22;53956;52.442;13.284;2023-04-03T13:53:22;8.40;65.40
18126;DHT22;53956;52.442;13.284;2023-04-03T13:55:58;8.30;65.10
18126;DHT22;53956;52.442;13.284;2023-04-03T13:58:27;8.30;65.00
18126;DHT22;53956;52.442;13.284;2023-04-03T14:01:00;8.20;65.60
18126;DHT22;53956;52.442;13.284;2023-04-03T14:03:30;8.10;65.60
18126;DHT22;53956;52.442;13.284;2023-04-03T14:05:57;8.20;64.60
18126;DHT22;53956;52.442;13.284;2023-04-03T14:08:24;8.10;65.10
18126;DHT22;53956;52.442;13.284;2023-04-03T14:10:51;8.20;65.40
18126;DHT22;53956;52.442;13.284;2023-04-03T14:13:20;8.10;65.10
18126;DHT22;53956;52.442;13.284;2023-04-03T14:15:47;8.00;65.20
18126;DHT22;53956;52.442;13.284;2023-04-03T14:18:19;7.90;65.30
18126;DHT22;53956;52.442;13.284;2023-04-03T14:20:47;7.90;65.20
18126;DHT22;53956;52.442;13.284;2023-04-03T14:23:14;8.00;65.70
18126;DHT22;53956;52.442;13.284;2023-04-03T14:25:42;8.00;65.90
18126;DHT22;53956;52.442;13.284;2023-04-03T14:28:17;8.00;66.10
18126;DHT22;53956;52.442;13.284;2023-04-03T14:30:45;8.10;65.80
18126;DHT22;53956;52.442;13.284;2023-04-03T14:33:15;8.20;66.00
18126;DHT22;53956;52.442;13.284;2023-04-03T14:35:43;7.90;65.90
18126;DHT22;53956;52.442;13.284;2023-04-03T14:38:22;8.20;66.70
18126;DHT22;53956;52.442;13.284;2023-04-03T14:40:50;7.90;66.30
18126;DHT22;53956;52.442;13.284;2023-04-03T14:43:17;8.10;66.40
18126;DHT22;53956;52.442;13.284;2023-04-03T14:45:45;8.00;66.80
18126;DHT22;53956;52.442;13.284;2023-04-03T14:48:17;7.90;65.30
18126;DHT22;53956;52.442;13.284;2023-04-03T14:50:46;8.00;64.60
18126;DHT22;53956;52.442;13.284;2023-04-03T14:53:13;8.20;64.40
18126;DHT22;53956;52.442;13.284;2023-04-03T14:55:42;8.10;64.20
18126;DHT22;53956;52.442;13.284;2023-04-03T14:58:13;8.20;63.40
18126;DHT22;53956;52.442;13.284;2023-04-03T15:00:41;8.30;63.90
18126;DHT22;53956;52.442;13.284;2023-04-03T15:03:13;8.30;63.70
18126;DHT22;53956;52.442;13.284;2023-04-03T15:05:42;8.00;64.20
18126;DHT22;53956;52.442;13.284;2023-04-03T15:08:17;8.10;63.10
18126;DHT22;53956;52.442;13.284;2023-04-03T15:10:45;8.30;64.10
18126;DHT22;53956;52.442;13.284;2023-04-03T15:13:12;8.30;64.80
18126;DHT22;53956;52.442;13.284;2023-04-03T15:15:39;8.10;65.30
18126;DHT22;53956;52.442;13.284;2023-04-03T15:18:06;8.20;65.30
18126;DHT22;53956;52.442;13.284;2023-04-03T15:20:32;8.10;65.70
18126;DHT22;53956;52.442;13.284;2023-04-03T15:23:00;7.90;67.30
18126;DHT22;53956;52.442;13.284;2023-04-03T15:25:29;7.90;67.10
18126;DHT22;53956;52.442;13.284;2023-04-03T15:27:56;8.10;67.90
18126;DHT22;53956;52.442;13.284;2023-04-03T15:30:23;8.20;68.10
18126;DHT22;53956;52.442;13.284;2023-04-03T15:32:50;8.00;68.90
18126;DHT22;53956;52.442;13.284;2023-04-03T15:35:17;8.00;69.00
18126;DHT22;53956;52.442;13.284;2023-04-03T15:37:43;8.00;69.50
18126;DHT22;53956;52.442;13.284;2023-04-03T15:40:11;8.10;70.20
18126;DHT22;53956;52.442;13.284;2023-04-03T15:42:39;7.90;71.00
18126;DHT22;53956;52.442;13.284;2023-04-03T15:45:07;7.70;71.30
18126;DHT22;53956;52.442;13.284;2023-04-03T15:47:34;8.00;70.90
18126;DHT22;53956;52.442;13.284;2023-04-03T15:50:01;7.80;70.90
18126;DHT22;53956;52.442;13.284;2023-04-03T15:52:28;7.60;71.30
18126;DHT22;53956;52.442;13.284;2023-04-03T15:54:54;7.80;71.70
18126;DHT22;53956;52.442;13.284;2023-04-03T15:57:21;7.70;71.70
18126;DHT22;53956;52.442;13.284;2023-04-03T15:59:52;7.70;72.20
18126;DHT22;53956;52.442;13.284;2023-04-03T16:02:19;7.90;72.10
18126;DHT22;53956;52.442;13.284;2023-04-03T16:04:46;7.80;72.40
18126;DHT22;53956;52.442;13.284;2023-04-03T16:07:13;7.90;71.60
18126;DHT22;53956;52.442;13.284;2023-04-03T16:09:40;7.90;72.20
18126;DHT22;53956;52.442;13.284;2023-04-03T16:12:06;7.90;71.60